SIG weather

Fernando Luis Ribas Dominicci Airport
San Juan, Puerto Rico

Public forecast

Using degrees Celsius for public forecast. Weather courtesy of forecast.io.

METAR (pilot weather report)

Report is more than 6 hours old.

Retrieved 2019/08/17 22:45 UTC (7 hours ago):

TJIG 172245Z 00000KT 10SM VCSH SCT025 BKN080 26/23 A3004 RMK VCSH E MOV W

TAF (pilot weather forecast)

Forecast is more than 12 hours old.

Closest forecast is Luis Munoz Marin International Airport, 5.6 nm (10.3 km) E. Retrieved 2019/08/17 00:27 UTC (1 day ago):

TAF TJSJ 172322Z 1800/1824 08011KT P6SM -RA SCT025 BKN050 BKN100 FM180200 09007KT P6SM FEW025 SCT050 SCT120 FM180600 11004KT P6SM VCSH SCT025 BKN050 FM181400 08012KT P6SM SCT030 SCT050 FM181730 07015KT P6SM VCTS SCT025CB BKN050